TSS

 

 

The Salem Special - cemetery at Havelock

Station: cemetery - T Race

Distance: 43 Kilometers    

Release: 16-Oct-2020 11:20

Weather Release:    Arrival:

Wind at Release:     Wind at Arrival:

Temp at Release: °    Temp at Arrival: °

Lofts: 109

Birds: 310

Clocked: 226

birds released in small groups
Drops Pos Breeder Pigeon Name Color Sex Ent Arrival Speed To Win Elg Pd
1 Joe Splinter - ON 5713-CU20-CU BB H 1 11:48:58.72 1483.850 00:00:00 Missing
2 Roys Boys - ON 0910-CU20-FLAM DCPD H 1 12:13:54.97 797.534 00:24:56 Yes
3 Da Cunha Team - ON 9034-CU20-CU BBPD H 1 12:14:10.48 793.729 00:25:12 Yes
4 V And V Loft - MB 2063-WH20-WPG BB H 1 12:14:15.57 792.488 00:25:17 Yes
5 Granby Loft - QC 1473-CU20-CU BB H 1 12:14:27.66 789.556 00:25:29 Yes
6 Rpc Network - Racingpigeonsca - ON 7884-CU20-MISS DC H 1 12:14:27.67 789.553 00:25:29 Yes
7 Sam Monardo Loft - ON 6505-CU20-MISS BB H 1 12:14:28.02 789.469 00:25:29 Yes
7 R & E Ridder - ON 20612-CU20-GTR My Boo Boos BB H 1 12:14:28.02 789.469 00:25:29 Yes
9 J&l Loft - CAN 7202-CU20-MISS GRIZ H 1 12:14:28.49 789.355 00:25:30 Yes
10 P B B B - ON 1887-CU20-WW BB H 1 12:14:28.50 789.353 00:25:30 Yes
11 Bluesky Loft - ON 2719-CU20-YRI BB H 1 12:14:28.74 789.295 00:25:30 Yes
12 Tavares & Son - ON 6429-CU20-MISS BB H 1 12:14:28.98 789.237 00:25:30 Yes
13 J K Loft 2 - ON 0036-CU20-JKL BB H 1 12:14:29.47 789.119 00:25:31 Yes
14 Pigeonempire.Com Guido Madrusan - ON 5545-CU20-CU BC H 1 12:14:29.60 789.087 00:25:31 Yes
15 V And V Loft - MB 2038-WH20-WPG BC H 2 12:14:29.61 789.085 00:25:31 Yes
16 Adirondack Team - NY 4448-AU20-AA BB H 1 12:14:29.73 789.056 00:25:31 Yes
17 Jellant - ON 6450-CU20-MISS BB H 1 12:14:30.08 788.972 00:25:31 Yes
18 Fcq - QC 20965-CU20-LAVL BCWF H 1 12:14:30.55 788.858 00:25:32 Yes
19 Tavares & Son - ON 6420-CU20-MISS CHOC H 2 12:14:31.14 788.716 00:25:32 Yes
20 Pigeonempire.Com B & B - ON 5535-CU20-CU BC H 1 12:14:31.52 788.624 00:25:33 Yes
21 Bluesky Loft - ON 2711-CU20-YRI BC H 2 12:14:31.74 788.571 00:25:33 Yes
22 Universal Pigeons - ON 13153-CU20-CU BBPD H 1 12:14:31.98 788.514 00:25:33 Yes
23 Chicady - ON 57244-AU20-ARPU BBPD H 1 12:14:32.84 788.306 00:25:34 Yes
24 El Dorado Lofts Canada - BC 1793-CU20-CU El Avira BBPD H 1 12:14:33.18 788.225 00:25:34 Yes
25 Rick Fyfe - ON 0756-CU20-NIAG BB H 1 12:14:34.87 787.818 00:25:36 Yes
26 Rpc Network - Racingpigeonsca - ON 7887-CU20-MISS BB H 2 12:14:34.96 787.796 00:25:36 Yes
27 King Conch Loft - ON 2043-CU20-KCH BC H 1 12:14:35.70 787.618 00:25:37 Yes
28 Rpc Network - Racingpigeonsca - ON 777731-CU20-GALT BC H 3 12:14:39.15 786.789 00:25:40 Yes
29 Tavares & Son - ON 7335-AU20-MISS BB H 3 12:14:39.88 786.614 00:25:41 Yes
30 Big Andy - FL 0205-AU20-BGAN BB H 1 12:14:39.99 786.588 00:25:41 Yes
31 Skyview Loft 2 - ON 0016-CU20-HC BB H 1 12:14:40.00 786.585 00:25:41 Yes
32 Joe Splinter - ON 5716-CU20-CU BB H 2 12:14:41.54 786.217 00:25:43 Yes
33 Bartosz And Bill - ON 13304-CU20-CU BB H 1 12:14:41.66 786.187 00:25:43 Yes
34 Maple Lofts - ON 22805-CU20-CU BB H 1 12:14:41.70 786.178 00:25:43 Yes
35 Pigeonempire.Com B & B - ON 5524-CU20-CU BC H 2 12:14:42.03 786.099 00:25:43 Yes
36 Da Cunha Team - ON 9036-CU20-CU BB H 2 12:14:42.29 786.037 00:25:44 Yes
37 Dutch Touch Int - ON 3683-CU20-OL BB H 1 12:14:42.98 785.871 00:25:44 Yes
38 P B B B - ON 1830-CU20-WW BB H 2 12:14:43.16 785.828 00:25:44 Yes
39 High-Octane - NY 4461-AU20-AA BBPD H 1 12:14:43.27 785.802 00:25:45 Yes
40 Da Cunha Team - ON 9035-CU20-CU BB H 3 12:14:44.10 785.603 00:25:45 Yes
41 John & Mark - AB 29305-AU20-ARPU PEN H 1 12:14:44.94 785.403 00:25:46 Yes
42 Silvercreek Loft - ON 13148-CU20-CU BC H 1 12:14:45.40 785.292 00:25:47 Yes
43 Dyck Lofts - AB 8648-CU20-CU BB H 1 12:14:45.54 785.259 00:25:47 Yes
44 Adirondack Team - NY 4434-AU20-AA BC H 2 12:14:46.14 785.116 00:25:47 Yes
45 East West - ON 22555-CU20-CU BB H 1 12:14:46.24 785.092 00:25:48 Yes
46 Michael & Guido - AB 20105-PH20-PH BC H 1 12:14:46.62 785.001 00:25:48 Yes
47 Lamassu Loft - ON 3942-CU20-CU BB H 1 12:14:46.89 784.937 00:25:48 Yes
48 Skyview Loft 2 - ON 10090-CU20-CU BC H 2 12:14:47.21 784.860 00:25:48 Yes
49 Werner Vahle - ON 8747-CU20-CU RED H 1 12:14:47.24 784.853 00:25:49 Yes
50 Dyck Lofts - AB 8657-CU20-CU GRIZ H 2 12:14:47.33 784.831 00:25:49 Yes
51 El Dorado Lofts Canada - BC 1797-CU20-CU El Placido BBPD H 2 12:14:48.43 784.569 00:25:50 Yes
52 J&l Loft - CAN 7216-CU20-MISS BC H 2 12:14:48.63 784.521 00:25:50 Yes
53 V And V Loft - MB 2004-WH20-WPG BC H 3 12:14:48.65 784.517 00:25:50 Yes
54 El Dorado Lofts Canada - BC 1800-CU20-CU El Lumos BCPD H 3 12:14:49.01 784.431 00:25:50 Yes
55 Gaskin/Lopes - ON 11912-CU20-CU BC H 1 12:14:50.86 783.989 00:25:52 Yes
56 Bluesky Loft - ON 2734-CU20-YRI BB H 3 12:14:50.98 783.961 00:25:52 Yes
57 John Black - ON 8021-CU20-MISS BB H 1 12:14:52.31 783.644 00:25:54 Yes
58 Gatti Vs Ward - ON 0171-CU20-HV BB H 1 12:14:52.35 783.634 00:25:54 Yes
59 High-Octane - NY 4452-AU20-AA BBPD H 2 12:14:52.47 783.606 00:25:54 Yes
60 High-Octane - NY 4451-AU20-AA BB H 3 12:14:52.93 783.496 00:25:54 Yes
61 El Dorado Lofts Canada - BC 1775-CU20-CU El Selwen BBWF H 4 12:14:53.19 783.435 00:25:54 Yes
62 02 Max - BC 0213-PH20-NR BB H 1 12:14:53.54 783.352 00:25:55 Yes
63 Adirondack Team - NY 4445-AU20-AA BB H 3 12:14:54.72 783.071 00:25:56 Yes
64 John Black - ON 8028-CU20-MISS GRIZ H 2 12:14:59.03 782.048 00:26:00 Yes
65 Weekend At Bernie's - ON 2025-WH20-WPG BB H 1 12:15:00.08 781.799 00:26:01 Yes
66 Luc Bazinet - QC 16105-CU20-CU BB H 1 12:15:00.56 781.686 00:26:02 Missing
67 Da Cunha Team - ON 9200-CU20-CU BB H 4 12:16:12.48 765.015 00:27:14 Yes
68 Jim Phelan & Keith Cake - AB 1210-CU20-CU BC H 1 12:16:12.82 764.939 00:27:14 Yes
69 Benfica Loft - ON 0078-CU20-BENF RED H 1 12:16:13.88 764.698 00:27:15 Yes
70 High-Octane - NY 4443-AU20-AA BC H 4 12:16:15.53 764.324 00:27:17 Yes
71 R & E Ridder - ON 20613-CU20-GTR Kanata Express BB H 2 12:16:18.52 763.648 00:27:20 Yes
72 4-C Loft - SK 0004-CU20-REG Billy RED H 1 12:16:22.42 762.768 00:27:24 Yes
73 Jason Mihalec - BC 0701-CU20-NR BB H 1 12:16:31.97 760.620 00:27:33 Lost
74 Why-Fly Loft - ON 2226-CU20-WW BBWF H 1 12:16:32.48 760.506 00:27:34 Yes
75 Duhra Loft - AB 0530-CU20-DUHR BB H 1 12:17:16.42 750.781 00:28:18 Yes
76 Ross Stacey - ON 60536-AU20-ARPU BB H 1 12:17:20.27 749.942 00:28:22 Yes
77 Turkiewicz Loft - ON 0519-CU20-CP BC H 1 12:17:20.60 749.869 00:28:22 Yes
78 John Black - ON 8014-CU20-MISS SLVR H 3 12:17:22.11 749.540 00:28:23 Yes
79 John & Mark - AB 8254-CU20-CU BB H 2 12:18:15.85 738.018 00:29:17 Yes
80 Team 2020 - ON 4999-CU20-CU GRIZ H 1 12:18:18.18 737.527 00:29:19 Yes
81 Pigeonempire.Com B & B - ON 5556-CU20-CU BB H 3 12:18:21.45 736.837 00:29:23 Yes
82 Mazda - ON 57212-AU20-ARPU GRIZ H 1 12:20:02.68 716.133 00:31:04 Yes
83 Bluesky Loft - ON 2718-CU20-YRI CHOC H 4 12:20:02.78 716.113 00:31:04 Yes
84 Wolfhillloft - ON 0110-CU20-WFHL Maxi Kitt BBWF H 1 12:20:03.02 716.066 00:31:04 Yes
85 P & G Lofts - ON 20139-CU20-LAKE BB H 1 12:20:03.12 716.047 00:31:04 Yes
86 Dutch Touch Int - ON 3682-CU20-OL BC H 2 12:20:03.15 716.040 00:31:04 Yes
87 Team Portugal - ON 9043-CU20-CU LBC H 1 12:20:03.38 715.994 00:31:05 Yes
88 Brad Wogan - ON 2032-CU20-KCH BC H 1 12:20:03.97 715.877 00:31:05 Yes
89 Jellant - ON 6416-CU20-MISS BB H 2 12:20:04.44 715.784 00:31:06 Yes
90 Dutch Touch Int - ON 3687-CU20-OL BC H 3 12:20:04.46 715.780 00:31:06 Yes
91 Matthew Vaccaro - ON 8776-CU20-CU BB H 1 12:20:04.78 715.716 00:31:06 Yes
92 Flying K9's - AB 0219-AU20-K9S BB H 1 12:20:05.29 715.615 00:31:07 Yes
93 Fcq - QC 20394-CU20-LAVL BB H 2 12:20:05.66 715.542 00:31:07 Yes
94 Nicholls Lofts - BC 0021-CU20-NL Designated Survivor BB H 1 12:20:05.83 715.508 00:31:07 Yes
95 Pigeonempire.Com B & B - ON 5526-CU20-CU BB H 4 12:20:06.20 715.435 00:31:07 Yes
96 Tavares & Son - ON 7339-AU20-MISS BB H 4 12:20:07.58 715.160 00:31:09 Yes
97 J&l Loft - CAN 7213-CU20-MISS BLCK H 3 12:20:07.67 715.143 00:31:09 Yes
98 Can-Am Syndicate - MI 20089-AU20-CNAM BB H 1 12:20:07.72 715.133 00:31:09 Yes
99 Bet 2 Win - ON 2169-CU20-BORD BB H 1 12:20:07.90 715.097 00:31:09 Yes
100 Matthew Vaccaro - ON 8778-CU20-CU BB H 2 12:20:07.99 715.080 00:31:09 Yes

There are 221 bird records

Note: These Race Results are unofficial and subject to change until verified by the Race Committee and declared final.